sensor_id;sensor_type;location;lat;lon;timestamp;pressure;altitude;pressure_sealevel;temperature;humidity
39275;BME280;24980;48.874;2.332;2023-08-21T00:00:58;101869.44;;;30.26;48.52
39275;BME280;24980;48.874;2.332;2023-08-21T00:03:28;101864.06;;;30.25;48.46
39275;BME280;24980;48.874;2.332;2023-08-21T00:06:01;101866.72;;;30.25;48.43
39275;BME280;24980;48.874;2.332;2023-08-21T00:08:35;101865.66;;;30.24;48.42
39275;BME280;24980;48.874;2.332;2023-08-21T00:11:05;101862.59;;;30.23;48.41
39275;BME280;24980;48.874;2.332;2023-08-21T00:13:30;101863.61;;;30.24;48.39
39275;BME280;24980;48.874;2.332;2023-08-21T00:16:00;101862.52;;;30.23;48.36
39275;BME280;24980;48.874;2.332;2023-08-21T00:18:36;101858.52;;;30.22;48.34
39275;BME280;24980;48.874;2.332;2023-08-21T00:21:01;101861.95;;;30.22;48.32
39275;BME280;24980;48.874;2.332;2023-08-21T00:23:37;101858.62;;;30.22;48.31
39275;BME280;24980;48.874;2.332;2023-08-21T00:26:02;101852.78;;;30.20;48.29
39275;BME280;24980;48.874;2.332;2023-08-21T00:28:33;101855.27;;;30.20;48.27
39275;BME280;24980;48.874;2.332;2023-08-21T00:31:06;101853.25;;;30.19;48.23
39275;BME280;24980;48.874;2.332;2023-08-21T00:33:37;101852.11;;;30.17;48.18
39275;BME280;24980;48.874;2.332;2023-08-21T00:36:05;101845.39;;;30.16;48.14
39275;BME280;24980;48.874;2.332;2023-08-21T00:38:35;101853.36;;;30.15;48.11
39275;BME280;24980;48.874;2.332;2023-08-21T00:41:05;101848.97;;;30.14;48.05
39275;BME280;24980;48.874;2.332;2023-08-21T00:43:35;101851.91;;;30.13;48.00
39275;BME280;24980;48.874;2.332;2023-08-21T00:46:06;101850.20;;;30.12;47.95
39275;BME280;24980;48.874;2.332;2023-08-21T00:48:36;101850.44;;;30.11;47.91
39275;BME280;24980;48.874;2.332;2023-08-21T00:53:37;101847.47;;;30.10;47.83
39275;BME280;24980;48.874;2.332;2023-08-21T00:56:08;101845.27;;;30.09;47.78
39275;BME280;24980;48.874;2.332;2023-08-21T00:58:39;101846.52;;;30.08;47.74
39275;BME280;24980;48.874;2.332;2023-08-21T01:01:10;101845.70;;;30.06;47.69
39275;BME280;24980;48.874;2.332;2023-08-21T01:03:40;101852.59;;;30.05;47.68
39275;BME280;24980;48.874;2.332;2023-08-21T01:06:12;101852.35;;;30.04;47.69
39275;BME280;24980;48.874;2.332;2023-08-21T01:09:02;101857.57;;;30.04;47.71
39275;BME280;24980;48.874;2.332;2023-08-21T01:11:26;101856.98;;;30.03;47.70
39275;BME280;24980;48.874;2.332;2023-08-21T01:16:14;101854.66;;;30.02;47.62
39275;BME280;24980;48.874;2.332;2023-08-21T01:18:44;101855.27;;;30.01;47.56
39275;BME280;24980;48.874;2.332;2023-08-21T01:21:13;101857.78;;;30.00;47.49
39275;BME280;24980;48.874;2.332;2023-08-21T01:23:43;101859.42;;;29.99;47.44
39275;BME280;24980;48.874;2.332;2023-08-21T01:26:13;101855.31;;;29.97;47.41
39275;BME280;24980;48.874;2.332;2023-08-21T01:28:44;101861.91;;;29.96;47.38
39275;BME280;24980;48.874;2.332;2023-08-21T01:31:25;101863.07;;;29.95;47.37
39275;BME280;24980;48.874;2.332;2023-08-21T01:33:47;101863.10;;;29.94;47.33
39275;BME280;24980;48.874;2.332;2023-08-21T01:36:16;101863.45;;;29.93;47.31
39275;BME280;24980;48.874;2.332;2023-08-21T01:38:49;101862.36;;;29.93;47.28
39275;BME280;24980;48.874;2.332;2023-08-21T01:41:17;101860.97;;;29.91;47.23
39275;BME280;24980;48.874;2.332;2023-08-21T01:43:47;101863.09;;;29.92;47.20
39275;BME280;24980;48.874;2.332;2023-08-21T01:46:17;101869.02;;;29.90;47.15
39275;BME280;24980;48.874;2.332;2023-08-21T01:48:47;101865.75;;;29.89;47.11
39275;BME280;24980;48.874;2.332;2023-08-21T01:51:17;101865.69;;;29.88;47.08
39275;BME280;24980;48.874;2.332;2023-08-21T01:53:50;101867.59;;;29.86;47.04
39275;BME280;24980;48.874;2.332;2023-08-21T01:56:18;101865.77;;;29.85;47.00
39275;BME280;24980;48.874;2.332;2023-08-21T01:58:48;101862.05;;;29.84;46.96
39275;BME280;24980;48.874;2.332;2023-08-21T02:01:18;101867.25;;;29.84;46.92
39275;BME280;24980;48.874;2.332;2023-08-21T02:03:48;101868.80;;;29.84;46.89
39275;BME280;24980;48.874;2.332;2023-08-21T02:06:18;101870.56;;;29.81;46.87
39275;BME280;24980;48.874;2.332;2023-08-21T02:08:48;101869.02;;;29.81;46.88
39275;BME280;24980;48.874;2.332;2023-08-21T02:11:20;101866.05;;;29.80;46.85
39275;BME280;24980;48.874;2.332;2023-08-21T02:13:50;101868.45;;;29.80;46.84
39275;BME280;24980;48.874;2.332;2023-08-21T02:16:21;101868.07;;;29.79;46.82
39275;BME280;24980;48.874;2.332;2023-08-21T02:18:51;101866.91;;;29.77;46.79
39275;BME280;24980;48.874;2.332;2023-08-21T02:21:22;101866.07;;;29.76;46.76
39275;BME280;24980;48.874;2.332;2023-08-21T02:23:52;101866.98;;;29.75;46.74
39275;BME280;24980;48.874;2.332;2023-08-21T02:26:26;101865.88;;;29.75;46.71
39275;BME280;24980;48.874;2.332;2023-08-21T02:28:58;101863.83;;;29.75;46.70
39275;BME280;24980;48.874;2.332;2023-08-21T02:31:26;101863.17;;;29.74;46.71
39275;BME280;24980;48.874;2.332;2023-08-21T02:33:54;101861.08;;;29.73;46.73
39275;BME280;24980;48.874;2.332;2023-08-21T02:36:26;101858.00;;;29.73;46.73
39275;BME280;24980;48.874;2.332;2023-08-21T02:38:58;101859.14;;;29.72;46.72
39275;BME280;24980;48.874;2.332;2023-08-21T02:41:28;101854.73;;;29.70;46.71
39275;BME280;24980;48.874;2.332;2023-08-21T02:43:55;101858.11;;;29.69;46.71
39275;BME280;24980;48.874;2.332;2023-08-21T02:46:25;101864.19;;;29.69;46.71
39275;BME280;24980;48.874;2.332;2023-08-21T02:51:37;101870.12;;;29.67;46.67
39275;BME280;24980;48.874;2.332;2023-08-21T02:53:57;101866.16;;;29.66;46.66
39275;BME280;24980;48.874;2.332;2023-08-21T02:56:27;101861.64;;;29.65;46.63
39275;BME280;24980;48.874;2.332;2023-08-21T02:58:57;101863.88;;;29.64;46.62
39275;BME280;24980;48.874;2.332;2023-08-21T03:01:28;101858.98;;;29.63;46.61
39275;BME280;24980;48.874;2.332;2023-08-21T03:03:58;101866.78;;;29.62;46.61
39275;BME280;24980;48.874;2.332;2023-08-21T03:06:28;101862.48;;;29.60;46.58
39275;BME280;24980;48.874;2.332;2023-08-21T03:08:58;101859.69;;;29.59;46.55
39275;BME280;24980;48.874;2.332;2023-08-21T03:11:28;101856.62;;;29.59;46.55
39275;BME280;24980;48.874;2.332;2023-08-21T03:13:58;101859.62;;;29.58;46.56
39275;BME280;24980;48.874;2.332;2023-08-21T03:16:28;101862.09;;;29.58;46.60
39275;BME280;24980;48.874;2.332;2023-08-21T03:18:59;101864.50;;;29.58;46.63
39275;BME280;24980;48.874;2.332;2023-08-21T03:21:29;101864.59;;;29.57;46.57
39275;BME280;24980;48.874;2.332;2023-08-21T03:23:59;101859.68;;;29.57;46.62
39275;BME280;24980;48.874;2.332;2023-08-21T03:26:33;101858.17;;;29.55;46.60
39275;BME280;24980;48.874;2.332;2023-08-21T03:29:02;101862.20;;;29.54;46.59
39275;BME280;24980;48.874;2.332;2023-08-21T03:31:39;101862.52;;;29.53;46.58
39275;BME280;24980;48.874;2.332;2023-08-21T03:34:05;101870.73;;;29.52;46.53
39275;BME280;24980;48.874;2.332;2023-08-21T03:36:37;101868.11;;;29.51;46.52
39275;BME280;24980;48.874;2.332;2023-08-21T03:39:03;101869.34;;;29.50;46.48
39275;BME280;24980;48.874;2.332;2023-08-21T03:41:41;101869.54;;;29.49;46.46
39275;BME280;24980;48.874;2.332;2023-08-21T03:44:08;101867.09;;;29.48;46.43
39275;BME280;24980;48.874;2.332;2023-08-21T03:46:34;101868.52;;;29.47;46.41
39275;BME280;24980;48.874;2.332;2023-08-21T03:49:10;101872.72;;;29.45;46.40
39275;BME280;24980;48.874;2.332;2023-08-21T03:51:35;101879.05;;;29.45;46.38
39275;BME280;24980;48.874;2.332;2023-08-21T03:54:10;101877.36;;;29.44;46.36
39275;BME280;24980;48.874;2.332;2023-08-21T03:56:39;101875.52;;;29.44;46.34
39275;BME280;24980;48.874;2.332;2023-08-21T03:59:12;101872.62;;;29.43;46.33
39275;BME280;24980;48.874;2.332;2023-08-21T04:01:37;101875.63;;;29.42;46.30
39275;BME280;24980;48.874;2.332;2023-08-21T04:04:07;101869.11;;;29.41;46.28
39275;BME280;24980;48.874;2.332;2023-08-21T04:06:37;101867.42;;;29.40;46.28
39275;BME280;24980;48.874;2.332;2023-08-21T04:09:08;101867.36;;;29.39;46.28
39275;BME280;24980;48.874;2.332;2023-08-21T04:11:38;101871.47;;;29.38;46.31
39275;BME280;24980;48.874;2.332;2023-08-21T04:14:08;101868.95;;;29.38;46.34
39275;BME280;24980;48.874;2.332;2023-08-21T04:16:38;101876.03;;;29.38;46.37
39275;BME280;24980;48.874;2.332;2023-08-21T04:19:09;101877.94;;;29.37;46.37
39275;BME280;24980;48.874;2.332;2023-08-21T04:21:38;101877.52;;;29.36;46.35
39275;BME280;24980;48.874;2.332;2023-08-21T04:24:09;101880.00;;;29.36;46.34
39275;BME280;24980;48.874;2.332;2023-08-21T04:26:39;101878.44;;;29.34;46.33
39275;BME280;24980;48.874;2.332;2023-08-21T04:29:09;101877.89;;;29.32;46.30
39275;BME280;24980;48.874;2.332;2023-08-21T04:31:39;101879.38;;;29.31;46.27
39275;BME280;24980;48.874;2.332;2023-08-21T04:34:10;101881.20;;;29.30;46.24
39275;BME280;24980;48.874;2.332;2023-08-21T04:36:40;101886.72;;;29.28;46.22
39275;BME280;24980;48.874;2.332;2023-08-21T04:39:10;101890.92;;;29.27;46.21
39275;BME280;24980;48.874;2.332;2023-08-21T04:41:41;101892.48;;;29.26;46.18
39275;BME280;24980;48.874;2.332;2023-08-21T04:44:11;101893.48;;;29.25;46.17
39275;BME280;24980;48.874;2.332;2023-08-21T04:46:40;101900.41;;;29.24;46.16
39275;BME280;24980;48.874;2.332;2023-08-21T04:49:10;101900.73;;;29.23;46.16
39275;BME280;24980;48.874;2.332;2023-08-21T04:51:40;101902.71;;;29.22;46.17
39275;BME280;24980;48.874;2.332;2023-08-21T04:54:10;101898.70;;;29.22;46.20
39275;BME280;24980;48.874;2.332;2023-08-21T04:56:44;101898.23;;;29.21;46.25
39275;BME280;24980;48.874;2.332;2023-08-21T04:59:11;101900.37;;;29.22;46.27
39275;BME280;24980;48.874;2.332;2023-08-21T05:01:42;101899.17;;;29.21;46.27
39275;BME280;24980;48.874;2.332;2023-08-21T05:04:12;101902.78;;;29.20;46.26
39275;BME280;24980;48.874;2.332;2023-08-21T05:06:42;101905.95;;;29.19;46.26
39275;BME280;24980;48.874;2.332;2023-08-21T05:09:12;101909.98;;;29.19;46.22
39275;BME280;24980;48.874;2.332;2023-08-21T05:11:46;101912.86;;;29.17;46.20
39275;BME280;24980;48.874;2.332;2023-08-21T05:14:13;101911.94;;;29.16;46.17
39275;BME280;24980;48.874;2.332;2023-08-21T05:16:43;101911.31;;;29.15;46.15
39275;BME280;24980;48.874;2.332;2023-08-21T05:19:14;101911.67;;;29.13;46.14
39275;BME280;24980;48.874;2.332;2023-08-21T05:21:45;101916.94;;;29.12;46.11
39275;BME280;24980;48.874;2.332;2023-08-21T05:24:15;101915.59;;;29.11;46.10
39275;BME280;24980;48.874;2.332;2023-08-21T05:26:45;101916.20;;;29.10;46.10
39275;BME280;24980;48.874;2.332;2023-08-21T05:29:16;101912.88;;;29.09;46.10
39275;BME280;24980;48.874;2.332;2023-08-21T05:31:46;101917.11;;;29.09;46.10
39275;BME280;24980;48.874;2.332;2023-08-21T05:34:16;101913.45;;;29.07;46.08
39275;BME280;24980;48.874;2.332;2023-08-21T05:36:46;101915.56;;;29.06;46.07
39275;BME280;24980;48.874;2.332;2023-08-21T05:39:17;101912.34;;;29.05;46.05
39275;BME280;24980;48.874;2.332;2023-08-21T05:41:46;101922.16;;;29.04;46.05
39275;BME280;24980;48.874;2.332;2023-08-21T05:44:17;101921.49;;;29.03;46.04
39275;BME280;24980;48.874;2.332;2023-08-21T05:46:49;101923.81;;;29.03;46.02
39275;BME280;24980;48.874;2.332;2023-08-21T05:49:24;101926.67;;;29.02;46.01
39275;BME280;24980;48.874;2.332;2023-08-21T05:51:48;101925.32;;;29.01;45.99
39275;BME280;24980;48.874;2.332;2023-08-21T05:54:18;101925.22;;;28.99;45.99
39275;BME280;24980;48.874;2.332;2023-08-21T05:56:48;101928.22;;;28.98;45.98
39275;BME280;24980;48.874;2.332;2023-08-21T05:59:29;101924.98;;;28.98;45.95
39275;BME280;24980;48.874;2.332;2023-08-21T06:01:49;101923.25;;;28.96;45.92
39275;BME280;24980;48.874;2.332;2023-08-21T06:04:22;101928.64;;;28.95;45.90
39275;BME280;24980;48.874;2.332;2023-08-21T06:06:50;101928.48;;;28.94;45.89
39275;BME280;24980;48.874;2.332;2023-08-21T06:09:20;101934.80;;;28.94;45.88
39275;BME280;24980;48.874;2.332;2023-08-21T06:11:51;101932.80;;;28.93;45.90
39275;BME280;24980;48.874;2.332;2023-08-21T06:14:21;101931.44;;;28.93;45.93
39275;BME280;24980;48.874;2.332;2023-08-21T06:16:51;101932.72;;;28.93;45.96
39275;BME280;24980;48.874;2.332;2023-08-21T06:19:22;101929.99;;;28.92;46.00
39275;BME280;24980;48.874;2.332;2023-08-21T06:21:52;101933.58;;;28.92;46.01
39275;BME280;24980;48.874;2.332;2023-08-21T06:24:25;101936.16;;;28.91;46.04
39275;BME280;24980;48.874;2.332;2023-08-21T06:26:54;101938.30;;;28.91;46.06
39275;BME280;24980;48.874;2.332;2023-08-21T06:29:24;101943.00;;;28.90;46.06
39275;BME280;24980;48.874;2.332;2023-08-21T06:31:57;101943.17;;;28.90;46.02
39275;BME280;24980;48.874;2.332;2023-08-21T06:36:59;101939.81;;;28.88;45.99
39275;BME280;24980;48.874;2.332;2023-08-21T06:39:26;101935.05;;;28.87;45.96
39275;BME280;24980;48.874;2.332;2023-08-21T06:41:56;101935.48;;;28.87;45.95
39275;BME280;24980;48.874;2.332;2023-08-21T06:44:27;101936.98;;;28.86;45.94
39275;BME280;24980;48.874;2.332;2023-08-21T06:46:57;101936.74;;;28.85;45.94
39275;BME280;24980;48.874;2.332;2023-08-21T06:49:27;101939.48;;;28.85;45.96
39275;BME280;24980;48.874;2.332;2023-08-21T06:51:57;101946.14;;;28.84;45.98
39275;BME280;24980;48.874;2.332;2023-08-21T06:54:27;101949.22;;;28.84;45.98
39275;BME280;24980;48.874;2.332;2023-08-21T06:56:57;101947.98;;;28.83;45.97
39275;BME280;24980;48.874;2.332;2023-08-21T06:59:27;101948.41;;;28.83;45.95
39275;BME280;24980;48.874;2.332;2023-08-21T07:01:57;101944.48;;;28.83;45.94
39275;BME280;24980;48.874;2.332;2023-08-21T07:04:28;101944.86;;;28.81;45.91
39275;BME280;24980;48.874;2.332;2023-08-21T07:07:00;101943.92;;;28.81;45.90
39275;BME280;24980;48.874;2.332;2023-08-21T07:09:31;101948.45;;;28.81;45.86
39275;BME280;24980;48.874;2.332;2023-08-21T07:11:59;101943.14;;;28.78;45.86
39275;BME280;24980;48.874;2.332;2023-08-21T07:14:29;101944.17;;;28.77;45.86
39275;BME280;24980;48.874;2.332;2023-08-21T07:17:00;101940.22;;;28.76;45.87
39275;BME280;24980;48.874;2.332;2023-08-21T07:19:30;101938.17;;;28.76;45.87
39275;BME280;24980;48.874;2.332;2023-08-21T07:22:02;101941.09;;;28.75;45.87
39275;BME280;24980;48.874;2.332;2023-08-21T07:24:30;101946.36;;;28.76;45.87
39275;BME280;24980;48.874;2.332;2023-08-21T07:27:03;101946.03;;;28.75;45.88
39275;BME280;24980;48.874;2.332;2023-08-21T07:29:34;101950.38;;;28.75;45.88
39275;BME280;24980;48.874;2.332;2023-08-21T07:32:02;101955.84;;;28.75;45.87
39275;BME280;24980;48.874;2.332;2023-08-21T07:34:32;101951.42;;;28.74;45.86
39275;BME280;24980;48.874;2.332;2023-08-21T07:37:02;101960.38;;;28.74;45.86
39275;BME280;24980;48.874;2.332;2023-08-21T07:39:35;101959.79;;;28.74;45.86
39275;BME280;24980;48.874;2.332;2023-08-21T07:42:03;101954.80;;;28.73;45.86
39275;BME280;24980;48.874;2.332;2023-08-21T07:47:05;101966.42;;;28.71;45.84
39275;BME280;24980;48.874;2.332;2023-08-21T07:49:38;101967.02;;;28.71;45.84
39275;BME280;24980;48.874;2.332;2023-08-21T07:52:07;101965.62;;;28.70;45.83
39275;BME280;24980;48.874;2.332;2023-08-21T07:54:37;101965.45;;;28.70;45.83
39275;BME280;24980;48.874;2.332;2023-08-21T07:57:15;101966.14;;;28.69;45.83
39275;BME280;24980;48.874;2.332;2023-08-21T07:59:40;101964.54;;;28.68;45.84
39275;BME280;24980;48.874;2.332;2023-08-21T08:02:13;101964.27;;;28.66;45.86
39275;BME280;24980;48.874;2.332;2023-08-21T08:04:39;101962.30;;;28.65;45.85
39275;BME280;24980;48.874;2.332;2023-08-21T08:07:11;101966.55;;;28.64;45.86
39275;BME280;24980;48.874;2.332;2023-08-21T08:09:44;101967.37;;;28.64;45.86
39275;BME280;24980;48.874;2.332;2023-08-21T08:12:12;101969.38;;;28.64;45.88
39275;BME280;24980;48.874;2.332;2023-08-21T08:14:40;101967.84;;;28.64;45.88
39275;BME280;24980;48.874;2.332;2023-08-21T08:17:10;101969.50;;;28.64;45.87
39275;BME280;24980;48.874;2.332;2023-08-21T08:19:43;101968.06;;;28.63;45.86
39275;BME280;24980;48.874;2.332;2023-08-21T08:22:17;101965.16;;;28.63;45.82
39275;BME280;24980;48.874;2.332;2023-08-21T08:24:44;101967.47;;;28.62;45.80
39275;BME280;24980;48.874;2.332;2023-08-21T08:27:21;101964.59;;;28.61;45.79
39275;BME280;24980;48.874;2.332;2023-08-21T08:29:48;101970.52;;;28.61;45.76
39275;BME280;24980;48.874;2.332;2023-08-21T08:32:13;101964.80;;;28.60;45.74
39275;BME280;24980;48.874;2.332;2023-08-21T08:34:46;101968.63;;;28.61;45.72
39275;BME280;24980;48.874;2.332;2023-08-21T08:37:24;101964.84;;;28.61;45.71
39275;BME280;24980;48.874;2.332;2023-08-21T08:39:47;101962.70;;;28.61;45.70
39275;BME280;24980;48.874;2.332;2023-08-21T08:42:15;101959.89;;;28.61;45.70
39275;BME280;24980;48.874;2.332;2023-08-21T08:44:51;101960.53;;;28.60;45.70
39275;BME280;24980;48.874;2.332;2023-08-21T08:47:17;101953.37;;;28.60;45.71
39275;BME280;24980;48.874;2.332;2023-08-21T08:49:47;101948.95;;;28.58;45.73
39275;BME280;24980;48.874;2.332;2023-08-21T08:52:21;101948.95;;;28.59;45.73
39275;BME280;24980;48.874;2.332;2023-08-21T08:54:47;101947.48;;;28.56;45.75
39275;BME280;24980;48.874;2.332;2023-08-21T08:57:17;101946.05;;;28.56;45.75
39275;BME280;24980;48.874;2.332;2023-08-21T08:59:47;101945.80;;;28.55;45.75
39275;BME280;24980;48.874;2.332;2023-08-21T09:02:18;101948.42;;;28.57;45.74
39275;BME280;24980;48.874;2.332;2023-08-21T09:04:48;101954.25;;;28.54;45.76
39275;BME280;24980;48.874;2.332;2023-08-21T09:07:18;101955.17;;;28.55;45.74
39275;BME280;24980;48.874;2.332;2023-08-21T09:09:51;101955.67;;;28.56;45.74
39275;BME280;24980;48.874;2.332;2023-08-21T09:12:19;101945.84;;;28.58;45.74
39275;BME280;24980;48.874;2.332;2023-08-21T09:14:49;101947.08;;;28.59;45.75
39275;BME280;24980;48.874;2.332;2023-08-21T09:17:19;101939.56;;;28.59;45.77
39275;BME280;24980;48.874;2.332;2023-08-21T09:19:50;101939.48;;;28.59;45.83
39275;BME280;24980;48.874;2.332;2023-08-21T09:22:30;101941.12;;;28.61;45.89
39275;BME280;24980;48.874;2.332;2023-08-21T09:25:11;101944.61;;;28.62;45.96
39275;BME280;24980;48.874;2.332;2023-08-21T09:27:22;101941.47;;;28.64;46.02
39275;BME280;24980;48.874;2.332;2023-08-21T09:29:54;101941.48;;;28.66;46.05
39275;BME280;24980;48.874;2.332;2023-08-21T09:32:22;101941.81;;;28.66;46.07
39275;BME280;24980;48.874;2.332;2023-08-21T09:34:56;101934.86;;;28.68;46.08
39275;BME280;24980;48.874;2.332;2023-08-21T09:37:28;101932.73;;;28.71;46.09
39275;BME280;24980;48.874;2.332;2023-08-21T09:39:54;101929.20;;;28.72;46.11
39275;BME280;24980;48.874;2.332;2023-08-21T09:42:24;101931.95;;;28.75;46.12
39275;BME280;24980;48.874;2.332;2023-08-21T09:44:55;101929.21;;;28.76;46.16
39275;BME280;24980;48.874;2.332;2023-08-21T09:47:25;101926.07;;;28.78;46.18
39275;BME280;24980;48.874;2.332;2023-08-21T09:49:55;101927.33;;;28.80;46.17
39275;BME280;24980;48.874;2.332;2023-08-21T09:52:26;101929.30;;;28.79;46.14
39275;BME280;24980;48.874;2.332;2023-08-21T09:55:00;101926.05;;;28.80;46.10
39275;BME280;24980;48.874;2.332;2023-08-21T09:57:28;101923.45;;;28.80;46.06
39275;BME280;24980;48.874;2.332;2023-08-21T09:59:58;101921.61;;;28.80;46.02
39275;BME280;24980;48.874;2.332;2023-08-21T10:02:28;101927.20;;;28.81;45.99
39275;BME280;24980;48.874;2.332;2023-08-21T10:04:59;101930.26;;;28.81;45.94
39275;BME280;24980;48.874;2.332;2023-08-21T10:07:31;101927.42;;;28.79;45.93
39275;BME280;24980;48.874;2.332;2023-08-21T10:10:06;101926.31;;;28.80;45.91
39275;BME280;24980;48.874;2.332;2023-08-21T10:12:30;101925.62;;;28.83;45.88
39275;BME280;24980;48.874;2.332;2023-08-21T10:15:01;101921.62;;;28.86;45.85
39275;BME280;24980;48.874;2.332;2023-08-21T10:17:31;101916.25;;;28.89;45.83
39275;BME280;24980;48.874;2.332;2023-08-21T10:20:06;101915.32;;;28.92;45.82
39275;BME280;24980;48.874;2.332;2023-08-21T10:22:45;101910.30;;;28.94;45.76
39275;BME280;24980;48.874;2.332;2023-08-21T10:25:02;101904.56;;;28.96;45.74
39275;BME280;24980;48.874;2.332;2023-08-21T10:27:33;101902.34;;;28.99;45.72
39275;BME280;24980;48.874;2.332;2023-08-21T10:30:12;101904.50;;;29.04;45.69
39275;BME280;24980;48.874;2.332;2023-08-21T10:32:34;101904.08;;;29.06;45.67
39275;BME280;24980;48.874;2.332;2023-08-21T10:35:13;101900.73;;;29.08;45.65
39275;BME280;24980;48.874;2.332;2023-08-21T10:40:21;101897.86;;;29.09;45.61
39275;BME280;24980;48.874;2.332;2023-08-21T10:42:42;101896.55;;;29.11;45.60
39275;BME280;24980;48.874;2.332;2023-08-21T10:45:13;101896.36;;;29.12;45.59
39275;BME280;24980;48.874;2.332;2023-08-21T10:47:37;101887.31;;;29.12;45.59
39275;BME280;24980;48.874;2.332;2023-08-21T10:50:10;101887.53;;;29.12;45.60
39275;BME280;24980;48.874;2.332;2023-08-21T10:52:43;101886.06;;;29.16;45.59
39275;BME280;24980;48.874;2.332;2023-08-21T10:55:09;101884.59;;;29.20;45.57
39275;BME280;24980;48.874;2.332;2023-08-21T10:57:43;101880.07;;;29.23;45.55
39275;BME280;24980;48.874;2.332;2023-08-21T11:00:14;101875.16;;;29.28;45.53
39275;BME280;24980;48.874;2.332;2023-08-21T11:02:42;101874.44;;;29.34;45.47
39275;BME280;24980;48.874;2.332;2023-08-21T11:05:12;101878.05;;;29.35;45.46
39275;BME280;24980;48.874;2.332;2023-08-21T11:07:46;101875.24;;;29.32;45.47
39275;BME280;24980;48.874;2.332;2023-08-21T11:10:15;101871.31;;;29.32;45.48
39275;BME280;24980;48.874;2.332;2023-08-21T11:12:52;101873.19;;;29.35;45.48
39275;BME280;24980;48.874;2.332;2023-08-21T11:15:14;101873.25;;;29.39;45.42
39275;BME280;24980;48.874;2.332;2023-08-21T11:18:00;101874.06;;;29.44;45.36
39275;BME280;24980;48.874;2.332;2023-08-21T11:20:14;101873.03;;;29.47;45.30
39275;BME280;24980;48.874;2.332;2023-08-21T11:22:44;101868.67;;;29.50;45.29
39275;BME280;24980;48.874;2.332;2023-08-21T11:25:17;101871.82;;;29.51;45.30
39275;BME280;24980;48.874;2.332;2023-08-21T11:27:50;101871.74;;;29.50;45.32
39275;BME280;24980;48.874;2.332;2023-08-21T11:30:16;101872.44;;;29.50;45.29
39275;BME280;24980;48.874;2.332;2023-08-21T11:32:46;101869.20;;;29.52;45.25
39275;BME280;24980;48.874;2.332;2023-08-21T11:35:19;101873.83;;;29.54;45.22
39275;BME280;24980;48.874;2.332;2023-08-21T11:37:46;101870.05;;;29.55;45.18
39275;BME280;24980;48.874;2.332;2023-08-21T11:40:22;101865.22;;;29.60;45.09
39275;BME280;24980;48.874;2.332;2023-08-21T11:42:52;101858.24;;;29.62;45.04
39275;BME280;24980;48.874;2.332;2023-08-21T11:45:21;101862.51;;;29.67;44.97
39275;BME280;24980;48.874;2.332;2023-08-21T11:47:55;101858.30;;;29.68;44.92
39275;BME280;24980;48.874;2.332;2023-08-21T11:50:20;101858.78;;;29.70;44.93
39275;BME280;24980;48.874;2.332;2023-08-21T11:52:55;101852.44;;;29.73;44.94
39275;BME280;24980;48.874;2.332;2023-08-21T11:55:25;101855.54;;;29.80;44.89
39275;BME280;24980;48.874;2.332;2023-08-21T11:57:57;101857.44;;;29.83;44.89
39275;BME280;24980;48.874;2.332;2023-08-21T12:03:00;101858.45;;;29.87;44.88
39275;BME280;24980;48.874;2.332;2023-08-21T12:05:24;101851.84;;;29.90;44.84
39275;BME280;24980;48.874;2.332;2023-08-21T12:07:54;101852.67;;;29.91;44.81
39275;BME280;24980;48.874;2.332;2023-08-21T12:10:26;101851.14;;;29.91;44.84
39275;BME280;24980;48.874;2.332;2023-08-21T12:12:55;101845.69;;;29.93;44.84
39275;BME280;24980;48.874;2.332;2023-08-21T12:15:26;101838.38;;;29.95;44.86
39275;BME280;24980;48.874;2.332;2023-08-21T12:17:56;101839.42;;;29.96;44.89
39275;BME280;24980;48.874;2.332;2023-08-21T12:20:26;101836.09;;;29.99;44.91
39275;BME280;24980;48.874;2.332;2023-08-21T12:22:56;101834.95;;;30.02;44.96
39275;BME280;24980;48.874;2.332;2023-08-21T12:25:27;101836.56;;;30.05;44.99
39275;BME280;24980;48.874;2.332;2023-08-21T12:27:57;101838.16;;;30.09;45.01
39275;BME280;24980;48.874;2.332;2023-08-21T12:30:27;101834.11;;;30.13;45.06
39275;BME280;24980;48.874;2.332;2023-08-21T12:32:57;101830.50;;;30.16;45.07
39275;BME280;24980;48.874;2.332;2023-08-21T12:35:27;101832.11;;;30.19;45.06
39275;BME280;24980;48.874;2.332;2023-08-21T12:37:58;101832.66;;;30.21;45.04
39275;BME280;24980;48.874;2.332;2023-08-21T12:40:28;101828.06;;;30.23;45.04
39275;BME280;24980;48.874;2.332;2023-08-21T12:42:58;101831.56;;;30.25;45.03
39275;BME280;24980;48.874;2.332;2023-08-21T12:45:28;101822.11;;;30.27;45.02
39275;BME280;24980;48.874;2.332;2023-08-21T12:47:58;101823.97;;;30.31;45.01
39275;BME280;24980;48.874;2.332;2023-08-21T12:50:28;101825.66;;;30.34;44.99
39275;BME280;24980;48.874;2.332;2023-08-21T12:52:59;101817.53;;;30.36;44.97
39275;BME280;24980;48.874;2.332;2023-08-21T12:55:29;101815.66;;;30.38;44.95
39275;BME280;24980;48.874;2.332;2023-08-21T12:57:59;101810.00;;;30.40;44.95
39275;BME280;24980;48.874;2.332;2023-08-21T13:00:30;101807.70;;;30.42;44.94
39275;BME280;24980;48.874;2.332;2023-08-21T13:03:00;101806.03;;;30.44;44.93
39275;BME280;24980;48.874;2.332;2023-08-21T13:05:30;101801.91;;;30.46;44.92
39275;BME280;24980;48.874;2.332;2023-08-21T13:08:01;101799.06;;;30.49;44.91
39275;BME280;24980;48.874;2.332;2023-08-21T13:10:34;101798.53;;;30.52;44.88
39275;BME280;24980;48.874;2.332;2023-08-21T13:13:01;101797.51;;;30.54;44.86
39275;BME280;24980;48.874;2.332;2023-08-21T13:15:32;101796.78;;;30.56;44.85
39275;BME280;24980;48.874;2.332;2023-08-21T13:18:05;101800.44;;;30.59;44.83
39275;BME280;24980;48.874;2.332;2023-08-21T13:20:35;101796.09;;;30.61;44.83
39275;BME280;24980;48.874;2.332;2023-08-21T13:23:03;101794.78;;;30.62;44.84